Time;durP1;ratioP1;P1;durP2;ratioP2;P2;SDS_P1;SDS_P2;PMS_P1;PMS_P2;Temp;Humidity;BMP_temperature;BMP_pressure;BME280_temperature;BME280_humidity;BME280_pressure;Samples;Min_cycle;Max_cycle;Signal;HPM_P1;HPM_P2
2021/05/18 00:01:27;;;;;;;5.50;2.67;;;;;;;19.68;53.17;100750.47;5006227;28;20037;-50
2021/05/18 00:03:52;;;;;;;4.47;2.45;;;;;;;19.66;52.99;100741.94;5023640;28;20025;-46
2021/05/18 00:06:19;;;;;;;5.95;2.78;;;;;;;19.66;53.06;100744.66;5023784;28;20086;-49
2021/05/18 00:11:44;;;;;;;7.13;2.67;;;;;;;19.63;53.13;100748.03;5022105;28;20067;-50
2021/05/18 00:14:10;;;;;;;4.68;2.72;;;;;;;19.61;53.24;100742.22;5023654;28;20396;-47
2021/05/18 00:16:35;;;;;;;5.07;2.90;;;;;;;19.63;53.06;100748.03;5006196;28;20033;-45
2021/05/18 00:19:01;;;;;;;4.78;2.70;;;;;;;19.63;53.20;100741.84;5024587;28;20056;-45
2021/05/18 00:21:26;;;;;;;2.63;2.33;;;;;;;19.61;53.08;100738.72;5024472;28;21216;-47
2021/05/18 00:23:52;;;;;;;4.40;2.50;;;;;;;19.60;52.88;100735.22;5024446;28;20066;-49
2021/05/18 00:26:17;;;;;;;3.47;2.45;;;;;;;19.60;53.28;100739.84;5004930;28;20044;-47
2021/05/18 00:28:42;;;;;;;4.35;2.47;;;;;;;19.59;52.97;100733.66;5023495;28;20788;-46
2021/05/18 00:31:08;;;;;;;6.47;2.50;;;;;;;19.59;52.85;100744.44;5023660;28;20053;-47
2021/05/18 00:33:33;;;;;;;4.18;2.35;;;;;;;19.58;52.99;100739.41;5005725;28;20048;-46
2021/05/18 00:35:59;;;;;;;4.72;2.50;;;;;;;19.57;52.89;100743.22;5023691;28;20033;-46
2021/05/18 00:38:25;;;;;;;3.75;2.65;;;;;;;19.57;52.74;100738.63;5004594;28;20128;-44
2021/05/18 00:40:50;;;;;;;3.63;2.70;;;;;;;19.57;53.04;100741.31;5022594;28;20408;-46
2021/05/18 00:43:15;;;;;;;2.95;2.63;;;;;;;19.55;52.59;100745.47;5023514;28;20561;-48
2021/05/18 00:45:45;;;;;;;6.00;2.60;;;;;;;19.54;52.83;100742.00;5023129;28;20504;-46
2021/05/18 00:48:10;;;;;;;4.70;2.72;;;;;;;19.53;52.88;100740.44;5004791;28;20469;-46
2021/05/18 00:50:38;;;;;;;3.85;2.72;;;;;;;19.52;53.05;100747.75;5023695;28;20507;-46
2021/05/18 00:53:03;;;;;;;4.35;2.75;;;;;;;19.52;52.85;100744.25;5023407;28;20033;-45
2021/05/18 01:00:38;;;;;;;2.97;2.60;;;;;;;19.50;52.65;100751.91;5022234;28;20471;-46
2021/05/18 01:03:04;;;;;;;3.88;2.70;;;;;;;19.49;52.74;100751.13;5006329;28;20042;-48
2021/05/18 01:08:13;;;;;;;6.40;3.07;;;;;;;19.47;52.63;100758.78;5022676;28;20422;-45
2021/05/18 01:10:39;;;;;;;4.35;2.70;;;;;;;19.47;52.85;100750.69;5005155;28;20274;-50
2021/05/18 01:13:04;;;;;;;3.17;2.97;;;;;;;19.47;52.86;100749.91;5005449;28;20048;-47
2021/05/18 01:15:29;;;;;;;4.13;2.65;;;;;;;19.46;52.69;100754.50;4988575;28;20429;-46
2021/05/18 01:17:55;;;;;;;4.10;2.75;;;;;;;19.44;52.74;100751.38;5023958;28;20039;-46
2021/05/18 01:20:21;;;;;;;7.10;3.30;;;;;;;19.43;52.92;100755.19;5022315;28;20042;-47
2021/05/18 01:22:47;;;;;;;5.72;3.20;;;;;;;19.44;52.81;100750.56;5005254;28;20034;-46
2021/05/18 01:25:12;;;;;;;6.80;3.17;;;;;;;19.44;52.65;100755.97;5023109;28;20033;-47
2021/05/18 01:27:38;;;;;;;6.22;3.38;;;;;;;19.43;52.83;100755.19;5006875;28;20092;-46
2021/05/18 01:30:05;;;;;;;5.10;3.25;;;;;;;19.44;52.54;100758.66;5006721;28;20165;-44
2021/05/18 01:32:30;;;;;;;4.97;3.15;;;;;;;19.43;52.84;100757.09;5026923;28;20179;-45
2021/05/18 01:34:55;;;;;;;3.58;2.95;;;;;;;19.42;52.55;100763.63;5026365;28;20045;-46
2021/05/18 01:37:21;;;;;;;4.90;3.20;;;;;;;19.41;52.84;100753.97;5008733;28;20052;-46
2021/05/18 01:40:01;;;;;;;7.40;3.30;;;;;;;19.40;52.78;100755.84;5026145;28;20729;-49
2021/05/18 01:42:47;;;;;;;7.97;3.53;;;;;;;19.40;52.74;100761.25;5026434;28;20080;-47
2021/05/18 01:45:14;;;;;;;3.30;2.97;;;;;;;19.39;52.71;100756.22;5026334;28;20117;-45
2021/05/18 01:47:42;;;;;;;5.93;3.25;;;;;;;19.37;52.76;100755.75;5026160;28;20483;-47
2021/05/18 01:50:08;;;;;;;5.78;3.50;;;;;;;19.37;52.88;100761.13;5007697;28;20052;-45
2021/05/18 01:52:33;;;;;;;3.50;3.20;;;;;;;19.35;52.69;100766.84;5007827;28;20041;-47
2021/05/18 01:54:58;;;;;;;6.20;3.25;;;;;;;19.37;52.67;100761.13;5024201;28;20110;-46
2021/05/18 01:57:25;;;;;;;3.05;2.75;;;;;;;19.37;52.72;100763.84;5025026;28;20034;-45
2021/05/18 01:59:51;;;;;;;6.35;3.53;;;;;;;19.36;52.69;100763.03;5023650;28;20048;-46
2021/05/18 02:02:17;;;;;;;4.05;2.80;;;;;;;19.36;52.60;100768.44;5024490;28;20116;-47
2021/05/18 02:04:55;;;;;;;3.35;3.05;;;;;;;19.33;52.64;100763.72;5024163;28;20045;-46
2021/05/18 02:07:26;;;;;;;5.20;3.75;;;;;;;19.35;52.80;100757.97;5024863;28;20044;-47
2021/05/18 02:09:51;;;;;;;3.00;2.70;;;;;;;19.35;52.24;100766.06;5007825;28;20041;-44
2021/05/18 02:12:16;;;;;;;4.88;3.40;;;;;;;19.32;52.67;100762.16;5024590;28;20064;-44
2021/05/18 02:14:45;;;;;;;6.85;3.33;;;;;;;19.33;53.33;100761.03;5023228;28;20068;-45
2021/05/18 02:17:24;;;;;;;7.38;3.80;;;;;;;19.35;53.15;100760.69;5025129;28;20037;-45
2021/05/18 02:20:07;;;;;;;6.47;4.07;;;;;;;19.31;53.23;100762.50;5024680;28;20454;-45
2021/05/18 02:25:23;;;;;;;5.20;3.75;;;;;;;19.29;53.18;100765.53;4993911;28;20048;-44
2021/05/18 02:27:50;;;;;;;4.82;3.47;;;;;;;19.30;53.01;100764.41;5025936;28;20069;-47
2021/05/18 02:30:16;;;;;;;7.10;3.83;;;;;;;19.27;53.33;100765.09;5024808;28;20033;-44
2021/05/18 02:32:41;;;;;;;4.35;3.55;;;;;;;19.29;53.14;100770.16;5025358;28;20044;-45
2021/05/18 02:35:08;;;;;;;7.55;3.40;;;;;;;19.29;53.14;100765.53;5025224;28;20034;-45
2021/05/18 02:37:35;;;;;;;6.72;4.00;;;;;;;19.29;53.33;100768.22;5025549;28;20407;-47
2021/05/18 02:40:00;;;;;;;13.15;4.35;;;;;;;19.30;53.32;100774.41;5006517;28;20103;-47
2021/05/18 02:42:25;;;;;;;4.72;4.03;;;;;;;19.30;53.28;100774.41;5007134;28;20519;-45
2021/05/18 02:45:18;;;;;;;6.78;4.15;;;;;;;19.29;53.26;100773.59;5025142;28;20142;-45
2021/05/18 02:50:20;;;;;;;6.22;4.40;;;;;;;19.28;53.34;100774.75;5023523;28;20414;-46
2021/05/18 02:52:45;;;;;;;7.90;4.72;;;;;;;19.27;53.20;100777.78;5025124;28;20042;-46
2021/05/18 02:55:17;;;;;;;9.05;4.90;;;;;;;19.25;53.39;100778.13;5024586;28;20384;-46
2021/05/18 02:57:43;;;;;;;7.65;4.60;;;;;;;19.26;53.26;100774.28;5007966;28;20578;-46
2021/05/18 03:00:10;;;;;;;8.48;4.43;;;;;;;19.26;53.29;100774.28;5023508;28;20045;-48
2021/05/18 03:02:35;;;;;;;8.02;4.45;;;;;;;19.26;53.18;100770.81;5024994;28;20076;-49
2021/05/18 03:05:02;;;;;;;10.35;4.88;;;;;;;19.25;53.44;100772.72;5024003;28;20128;-45
2021/05/18 03:07:27;;;;;;;15.70;5.03;;;;;;;19.24;53.24;100768.47;5025189;28;20056;-48
2021/05/18 03:09:53;;;;;;;5.80;5.28;;;;;;;19.25;53.47;100766.56;4989885;28;20060;-46
2021/05/18 03:12:18;;;;;;;10.98;4.93;;;;;;;19.25;53.30;100778.13;5005966;28;20037;-46
2021/05/18 03:14:43;;;;;;;10.65;4.97;;;;;;;19.24;53.32;100775.75;5006723;28;20518;-50
2021/05/18 03:17:09;;;;;;;12.57;5.60;;;;;;;19.25;53.43;100775.44;5024923;28;20571;-48
2021/05/18 03:19:34;;;;;;;7.03;5.05;;;;;;;19.24;53.24;100783.84;5006635;28;20056;-49
2021/05/18 03:22:00;;;;;;;7.07;5.18;;;;;;;19.24;53.49;100786.53;5023535;28;20045;-48
2021/05/18 03:24:25;;;;;;;7.03;4.43;;;;;;;19.24;53.49;100781.13;5023577;28;20533;-46
2021/05/18 03:26:51;;;;;;;7.35;4.80;;;;;;;19.24;53.49;100781.13;5023922;28;20045;-47
2021/05/18 03:29:23;;;;;;;7.97;4.75;;;;;;;19.23;53.36;100787.66;5024628;28;20124;-51
2021/05/18 03:34:34;;;;;;;8.93;5.07;;;;;;;19.23;53.27;100783.06;5024078;28;20048;-47
2021/05/18 03:37:05;;;;;;;6.82;4.15;;;;;;;19.22;53.49;100789.56;5024465;28;20606;-49
2021/05/18 03:39:31;;;;;;;7.38;4.50;;;;;;;19.22;53.32;100789.56;5023373;28;20037;-47
2021/05/18 03:42:04;;;;;;;8.52;4.78;;;;;;;19.21;53.29;100782.59;5007426;28;20065;-45
2021/05/18 03:44:46;;;;;;;9.18;5.20;;;;;;;19.21;53.49;100779.91;5023687;28;20033;-47
2021/05/18 03:52:48;;;;;;;7.95;5.43;;;;;;;19.19;53.38;100786.75;5023015;28;20045;-49
2021/05/18 04:03:41;;;;;;;6.05;4.60;;;;;;;19.19;53.52;100797.53;5025160;28;20278;-46
2021/05/18 04:16:53;;;;;;;7.03;4.93;;;;;;;19.19;53.53;100801.03;5019524;28;20674;-48
2021/05/18 04:19:22;;;;;;;5.63;4.57;;;;;;;19.18;53.51;100794.06;5008144;28;20037;-47
2021/05/18 04:21:59;;;;;;;9.73;4.63;;;;;;;19.19;53.41;100800.25;5023499;28;20048;-47
2021/05/18 04:24:43;;;;;;;5.38;4.40;;;;;;;19.17;53.44;100802.50;5019458;28;20133;-49
2021/05/18 04:41:05;;;;;;;5.32;4.80;;;;;;;19.18;53.89;100809.47;5017216;28;20056;-48
2021/05/18 04:49:35;;;;;;;6.97;5.38;;;;;;;19.15;53.84;100810.94;5022181;28;20136;-50
2021/05/18 04:55:16;;;;;;;7.15;5.72;;;;;;;19.14;53.94;100822.03;4970030;28;20099;-45
2021/05/18 05:00:22;;;;;;;6.45;5.85;;;;;;;19.14;54.06;100820.13;5013462;28;20081;-53
2021/05/18 05:03:01;;;;;;;7.30;6.07;;;;;;;19.15;53.93;100824.41;5019577;28;20037;-47
2021/05/18 05:08:47;;;;;;;7.83;6.77;;;;;;;19.15;53.94;100820.91;5005394;28;20044;-47
2021/05/18 05:16:11;;;;;;;8.90;6.57;;;;;;;19.14;54.04;100825.50;5026945;28;20068;-46
2021/05/18 05:18:37;;;;;;;10.07;7.38;;;;;;;19.13;54.01;100829.31;5009521;28;20050;-48
2021/05/18 05:21:02;;;;;;;8.30;7.05;;;;;;;19.13;54.09;100833.91;4995239;28;20034;-46
2021/05/18 05:23:27;;;;;;;7.93;7.22;;;;;;;19.14;54.05;100835.50;5021642;28;20042;-46
2021/05/18 05:25:53;;;;;;;9.77;8.57;;;;;;;19.13;54.06;100837.41;5004154;28;20044;-50
2021/05/18 05:28:18;;;;;;;8.68;7.78;;;;;;;19.13;54.25;100832.00;5012824;28;20091;-49
2021/05/18 05:30:44;;;;;;;7.80;7.10;;;;;;;19.14;54.29;100838.19;5020203;28;20102;-49
2021/05/18 05:33:09;;;;;;;8.60;7.80;;;;;;;19.13;54.08;100839.31;4999279;28;20034;-46
2021/05/18 05:35:34;;;;;;;10.25;7.47;;;;;;;19.13;54.26;100839.31;5016274;28;20044;-46
2021/05/18 05:38:00;;;;;;;9.50;8.60;;;;;;;19.13;54.09;100836.59;5025658;28;20053;-51
2021/05/18 05:40:25;;;;;;;11.35;8.32;;;;;;;19.13;54.16;100837.41;5001543;28;20037;-49
2021/05/18 05:42:50;;;;;;;8.63;7.78;;;;;;;19.13;54.21;100845.47;5007521;28;20160;-46
2021/05/18 05:45:16;;;;;;;10.52;7.97;;;;;;;19.13;54.64;100844.69;5021071;28;20038;-46
2021/05/18 05:47:41;;;;;;;12.15;8.48;;;;;;;19.14;55.06;100847.06;5022220;28;20038;-47
2021/05/18 05:50:08;;;;;;;9.82;8.90;;;;;;;19.17;55.94;100845.59;5024706;28;20812;-47
2021/05/18 05:52:34;;;;;;;18.83;10.45;;;;;;;19.18;56.88;100847.94;5023674;28;20123;-50
2021/05/18 05:55:00;;;;;;;16.30;10.85;;;;;;;19.18;57.14;100847.94;5022256;28;20528;-48
2021/05/18 05:57:25;;;;;;;16.55;10.43;;;;;;;19.19;56.85;100856.81;5022411;28;20488;-51
2021/05/18 05:59:50;;;;;;;12.85;9.90;;;;;;;19.14;56.67;100857.84;5017981;28;20054;-47
2021/05/18 06:02:16;;;;;;;14.60;10.45;;;;;;;19.15;56.29;100858.63;5019043;28;20054;-46
2021/05/18 06:04:41;;;;;;;12.57;10.68;;;;;;;19.15;56.15;100856.72;5000729;28;20121;-47
2021/05/18 06:07:07;;;;;;;18.95;11.00;;;;;;;19.15;56.09;100859.41;5005661;28;20041;-46
2021/05/18 06:09:34;;;;;;;15.85;12.27;;;;;;;19.14;56.10;100865.13;5018775;28;20048;-49
2021/05/18 06:12:13;;;;;;;12.75;11.52;;;;;;;19.14;55.91;100865.13;5018798;28;20068;-47
2021/05/18 06:14:49;;;;;;;15.10;11.05;;;;;;;19.18;55.74;100863.34;5017971;28;20582;-47
2021/05/18 06:17:53;;;;;;;14.45;10.48;;;;;;;19.17;55.55;100864.44;5020870;28;20060;-48
2021/05/18 06:47:45;;;;;;;11.00;10.00;;;;;;;19.16;54.88;100882.53;5018427;28;20052;-46
2021/05/18 06:49:58;;;;;;;12.32;11.02;;;;;;;19.14;55.03;100889.38;5015777;28;20145;-47
2021/05/18 06:52:23;;;;;;;12.55;10.40;;;;;;;19.15;55.20;100889.06;5004997;28;20581;-45
2021/05/18 06:54:48;;;;;;;10.68;9.27;;;;;;;19.16;55.08;100900.59;5018074;28;20049;-45
2021/05/18 06:57:14;;;;;;;12.50;10.15;;;;;;;19.16;55.52;100905.97;5003074;28;20037;-44
2021/05/18 07:02:24;;;;;;;10.75;9.65;;;;;;;19.11;55.65;100904.31;5019751;28;20044;-45
2021/05/18 07:04:53;;;;;;;12.70;11.00;;;;;;;19.12;55.70;100910.47;5023595;28;20049;-44
2021/05/18 07:07:21;;;;;;;10.95;9.73;;;;;;;19.14;55.45;100916.31;4984343;28;20053;-43
2021/05/18 07:09:46;;;;;;;11.05;9.88;;;;;;;19.12;55.66;100919.34;5017262;28;20364;-43
2021/05/18 07:12:11;;;;;;;12.88;10.82;;;;;;;19.25;55.83;100917.44;5012451;28;20658;-42
2021/05/18 07:14:37;;;;;;;12.13;10.93;;;;;;;19.32;55.84;100918.44;5018931;28;20040;-43
2021/05/18 07:17:02;;;;;;;12.63;11.52;;;;;;;19.39;55.71;100932.19;5019490;28;20496;-44
2021/05/18 07:19:28;;;;;;;13.30;11.90;;;;;;;19.44;55.41;100921.16;5022794;28;20046;-45
2021/05/18 07:21:53;;;;;;;13.00;11.85;;;;;;;19.48;55.47;100927.44;5021923;28;20048;-47
2021/05/18 07:24:23;;;;;;;12.45;11.20;;;;;;;19.51;55.72;100932.16;5021289;28;20034;-39
2021/05/18 07:26:49;;;;;;;16.10;11.02;;;;;;;19.57;55.46;100924.63;5022357;28;20060;-43
2021/05/18 07:29:15;;;;;;;14.07;10.57;;;;;;;19.61;55.33;100924.72;5022573;28;20164;-45
2021/05/18 07:31:40;;;;;;;12.25;10.20;;;;;;;19.67;54.94;100926.06;5018878;28;20120;-42
2021/05/18 07:34:06;;;;;;;16.17;10.38;;;;;;;19.72;54.64;100926.63;5022620;28;20037;-41
2021/05/18 07:36:31;;;;;;;12.75;11.20;;;;;;;19.75;54.46;100934.03;5020873;28;20055;-40
2021/05/18 07:38:57;;;;;;;11.15;10.18;;;;;;;19.81;54.40;100934.59;5005151;28;20487;-40
2021/05/18 07:41:22;;;;;;;13.00;10.40;;;;;;;19.84;54.19;100940.06;5005243;28;20041;-41
2021/05/18 07:43:47;;;;;;;11.30;10.18;;;;;;;19.85;54.35;100936.25;5023287;28;20037;-43
2021/05/18 07:46:17;;;;;;;21.15;10.00;;;;;;;19.85;54.75;100936.25;4988869;28;20155;-46
2021/05/18 07:49:06;;;;;;;12.38;10.10;;;;;;;19.89;54.94;100941.75;5018826;28;20083;-44
2021/05/18 07:59:50;;;;;;;10.88;9.38;;;;;;;20.04;54.54;100938.34;5018637;28;20049;-43
2021/05/18 08:02:24;;;;;;;10.95;9.52;;;;;;;20.07;54.50;100943.03;5018475;28;20057;-47
2021/05/18 08:07:35;;;;;;;9.80;9.00;;;;;;;20.09;54.56;100952.38;5008621;28;20079;-43
2021/05/18 08:10:10;;;;;;;10.15;8.68;;;;;;;20.10;54.41;100953.16;5004185;28;20032;-42
2021/05/18 08:12:35;;;;;;;11.45;10.30;;;;;;;20.10;54.86;100945.06;5020635;28;20041;-42
2021/05/18 08:15:28;;;;;;;10.52;9.15;;;;;;;20.15;54.17;100949.41;4999597;28;20044;-42
2021/05/18 08:18:06;;;;;;;13.75;9.20;;;;;;;20.13;54.50;100952.47;5014697;28;20052;-43
2021/05/18 09:44:46;;;;;;;6.50;4.93;;;;;;;20.51;52.30;101003.31;5018682;28;20101;-47
2021/05/18 09:47:43;;;;;;;5.60;5.20;;;;;;;20.45;52.63;101007.38;5006931;28;20117;-48
2021/05/18 10:36:35;;;;;;;5.13;4.73;;;;;;;20.37;51.36;100990.19;4998397;28;20103;-46
2021/05/18 10:39:21;;;;;;;4.53;4.13;;;;;;;20.39;51.09;100982.53;5001281;28;20857;-48
2021/05/18 10:41:47;;;;;;;4.57;4.18;;;;;;;20.46;51.63;100990.84;5019529;28;20033;-51
2021/05/18 10:44:12;;;;;;;4.35;4.03;;;;;;;20.48;51.26;100993.19;5002083;28;20496;-51
2021/05/18 10:46:58;;;;;;;5.82;5.00;;;;;;;20.37;51.06;100997.50;5024430;28;20041;-48
2021/05/18 10:49:32;;;;;;;6.53;5.03;;;;;;;20.34;51.08;100998.19;5013305;28;20038;-47
2021/05/18 10:52:00;;;;;;;6.07;4.22;;;;;;;20.33;51.52;100993.91;5013602;28;20033;-48
2021/05/18 10:54:28;;;;;;;4.85;4.15;;;;;;;20.36;51.65;100996.72;5012901;28;20047;-48
2021/05/18 10:56:53;;;;;;;4.95;4.40;;;;;;;20.40;52.04;100991.41;5011450;28;20116;-50
2021/05/18 10:59:22;;;;;;;5.15;4.70;;;;;;;20.41;52.01;100999.16;5010840;28;20120;-49
2021/05/18 11:01:47;;;;;;;8.05;4.30;;;;;;;20.41;52.26;100993.75;5008671;28;20057;-43
2021/05/18 11:04:13;;;;;;;6.00;4.18;;;;;;;20.49;51.74;100992.06;5015227;28;20026;-44
2021/05/18 11:06:51;;;;;;;5.90;4.22;;;;;;;20.54;51.44;100989.13;5004641;28;20049;-48
2021/05/18 11:09:18;;;;;;;4.57;4.10;;;;;;;20.58;51.39;100987.28;5017650;28;20048;-48
2021/05/18 11:11:43;;;;;;;5.10;3.80;;;;;;;20.63;51.47;100981.63;4995115;28;20943;-40
2021/05/18 11:14:09;;;;;;;4.70;3.88;;;;;;;20.69;51.14;100983.75;5006002;28;20041;-44
2021/05/18 11:16:34;;;;;;;4.03;3.40;;;;;;;20.65;51.93;100977.47;4994296;28;20084;-51
2021/05/18 11:19:10;;;;;;;3.35;3.22;;;;;;;20.66;51.80;100967.44;5000805;28;20037;-50
2021/05/18 11:21:39;;;;;;;3.72;3.42;;;;;;;20.64;51.42;100962.41;5016946;28;20041;-49
2021/05/18 11:24:11;;;;;;;4.00;3.72;;;;;;;20.64;51.91;100967.00;5015531;28;20156;-45
2021/05/18 11:26:49;;;;;;;5.60;3.35;;;;;;;20.71;51.51;100963.72;5013135;28;20127;-42
2021/05/18 11:29:14;;;;;;;5.50;3.30;;;;;;;20.78;51.56;100959.28;5001770;28;20048;-43
2021/05/18 11:31:40;;;;;;;4.05;3.60;;;;;;;20.86;51.11;100973.75;5010431;28;20041;-48
2021/05/18 11:34:05;;;;;;;4.13;3.88;;;;;;;20.88;51.53;100966.06;5009972;28;20063;-41
2021/05/18 11:36:38;;;;;;;4.55;4.05;;;;;;;20.94;51.01;100980.91;5005574;28;20030;-46
2021/05/18 11:39:16;;;;;;;4.53;3.47;;;;;;;20.94;51.08;100978.19;4996864;28;20117;-42
2021/05/18 11:41:42;;;;;;;4.03;3.70;;;;;;;20.95;51.04;100987.88;4978604;28;20041;-44
2021/05/18 11:44:09;;;;;;;4.00;3.70;;;;;;;20.99;50.94;100991.44;4979768;28;20504;-46
2021/05/18 11:46:35;;;;;;;3.72;3.17;;;;;;;21.02;50.58;100996.94;4999161;28;20136;-44
2021/05/18 11:49:04;;;;;;;3.85;3.55;;;;;;;21.00;50.75;100993.81;4982465;28;20140;-42
2021/05/18 11:51:39;;;;;;;3.70;3.40;;;;;;;21.03;50.26;100997.75;5001301;28;20044;-46
2021/05/18 11:54:05;;;;;;;3.65;3.35;;;;;;;21.07;50.23;101001.34;4982019;28;20444;-44
2021/05/18 11:56:31;;;;;;;3.38;3.20;;;;;;;21.08;49.96;100998.31;4961325;28;20037;-50
2021/05/18 11:59:13;;;;;;;3.35;3.15;;;;;;;21.09;50.09;101007.19;5002733;28;20062;-48
2021/05/18 12:02:03;;;;;;;3.17;3.00;;;;;;;21.10;50.18;101006.84;4999121;28;20043;-50
2021/05/18 12:04:29;;;;;;;3.80;3.10;;;;;;;21.10;49.88;101006.03;4970854;28;20054;-43
2021/05/18 12:06:56;;;;;;;3.10;2.78;;;;;;;21.12;48.95;100998.41;4998757;28;20075;-47
2021/05/18 12:09:21;;;;;;;2.95;2.72;;;;;;;21.11;49.72;100997.59;4999898;28;20041;-47
2021/05/18 12:11:54;;;;;;;3.92;2.70;;;;;;;21.12;48.95;101001.09;5001105;28;20045;-48
2021/05/18 12:14:19;;;;;;;3.80;2.75;;;;;;;21.15;49.77;100998.47;4978051;28;20041;-57
2021/05/18 12:16:44;;;;;;;3.45;2.40;;;;;;;21.18;49.85;101008.59;4995576;28;20030;-46
2021/05/18 12:19:13;;;;;;;3.03;2.80;;;;;;;21.22;49.43;100998.66;4996944;28;20516;-46
2021/05/18 12:21:39;;;;;;;3.17;2.85;;;;;;;21.27;48.93;100993.00;4997695;28;20138;-48
2021/05/18 12:24:05;;;;;;;2.70;2.50;;;;;;;21.30;49.37;100998.81;5001297;28;20071;-49
2021/05/18 12:26:30;;;;;;;2.60;2.42;;;;;;;21.28;49.20;100997.25;5000886;28;20103;-52
2021/05/18 12:29:00;;;;;;;2.72;2.58;;;;;;;21.37;48.67;101004.38;5009942;28;20049;-44
2021/05/18 12:31:30;;;;;;;3.88;2.42;;;;;;;21.36;48.58;100998.22;4976789;28;20050;-45
2021/05/18 12:33:55;;;;;;;2.83;2.60;;;;;;;21.38;49.04;101000.56;4996138;28;20045;-48
2021/05/18 12:36:20;;;;;;;2.47;2.38;;;;;;;21.37;48.40;100996.28;4997029;28;20646;-45
2021/05/18 12:39:07;;;;;;;2.78;2.60;;;;;;;21.45;48.13;100992.63;5019875;28;20500;-49
2021/05/18 12:41:46;;;;;;;2.50;2.40;;;;;;;21.43;47.81;100992.19;4989805;28;20645;-49
2021/05/18 12:44:12;;;;;;;3.10;2.28;;;;;;;21.40;47.93;101001.78;5005423;28;20091;-47
2021/05/18 12:46:51;;;;;;;3.47;2.47;;;;;;;21.48;47.19;101000.81;5005505;28;20455;-50
2021/05/18 12:49:24;;;;;;;2.45;2.10;;;;;;;21.39;47.46;100991.31;5005775;28;20055;-49
2021/05/18 12:51:59;;;;;;;2.38;2.28;;;;;;;21.40;46.75;100990.16;5022693;28;20052;-47
2021/05/18 12:54:25;;;;;;;2.67;2.47;;;;;;;21.45;47.07;100996.09;5022873;28;20543;-47
2021/05/18 12:57:00;;;;;;;2.40;2.30;;;;;;;21.59;46.14;100995.66;4987909;28;20051;-39
2021/05/18 12:59:25;;;;;;;2.40;2.20;;;;;;;21.57;46.34;101000.63;5022376;28;20144;-49
2021/05/18 13:01:50;;;;;;;2.47;2.10;;;;;;;21.65;46.14;100999.66;5022544;28;20447;-48
2021/05/18 13:04:16;;;;;;;2.50;2.15;;;;;;;21.58;46.24;100996.81;5023268;28;20047;-47
2021/05/18 13:06:48;;;;;;;2.22;2.00;;;;;;;21.56;46.47;100993.63;5005611;28;20045;-50
2021/05/18 13:09:30;;;;;;;2.75;1.92;;;;;;;21.51;46.73;101002.03;5003739;28;20033;-53
2021/05/18 13:12:12;;;;;;;3.92;2.00;;;;;;;21.56;46.47;101001.75;5020681;28;20183;-46
2021/05/18 13:15:25;;;;;;;2.10;2.00;;;;;;;21.52;46.30;101006.31;5019701;28;20037;-52
2021/05/18 13:17:58;;;;;;;2.10;2.00;;;;;;;21.55;46.29;101000.19;5000139;28;20092;-56
2021/05/18 13:20:24;;;;;;;3.42;1.98;;;;;;;21.56;46.53;101010.66;5021125;28;20510;-53
2021/05/18 13:22:59;;;;;;;3.13;2.10;;;;;;;21.60;46.47;101013.44;5005439;28;20159;-51
2021/05/18 13:28:08;;;;;;;2.20;2.10;;;;;;;21.59;46.53;101011.88;5010452;28;20727;-51
2021/05/18 13:30:35;;;;;;;2.33;2.13;;;;;;;21.57;46.43;101011.44;5009130;28;20049;-51
2021/05/18 13:33:00;;;;;;;1.98;1.88;;;;;;;21.57;46.75;101012.25;5024874;28;20061;-49
2021/05/18 13:35:29;;;;;;;1.98;1.88;;;;;;;21.50;47.10;101008.59;5027135;28;20139;-47
2021/05/18 13:37:54;;;;;;;2.20;2.00;;;;;;;21.48;47.23;101011.63;5027102;28;20451;-49
2021/05/18 13:40:20;;;;;;;1.90;1.77;;;;;;;21.47;47.28;101001.19;5024810;28;20515;-49
2021/05/18 13:42:50;;;;;;;2.47;2.20;;;;;;;21.55;46.57;101013.72;5009095;28;20588;-48
2021/05/18 13:45:15;;;;;;;2.90;2.30;;;;;;;21.54;46.59;101015.63;5008180;28;20499;-49
2021/05/18 13:47:40;;;;;;;2.72;2.00;;;;;;;21.53;46.78;101008.66;5008117;28;20042;-48
2021/05/18 13:50:06;;;;;;;2.25;2.00;;;;;;;21.53;46.25;101011.34;5025972;28;20189;-46
2021/05/18 13:52:32;;;;;;;2.85;1.80;;;;;;;21.59;46.26;101014.56;5026113;28;20061;-47
2021/05/18 13:54:57;;;;;;;2.20;1.73;;;;;;;21.58;45.70;101013.81;5026220;28;20407;-44
2021/05/18 13:57:22;;;;;;;3.58;2.42;;;;;;;21.52;45.45;101017.91;5026344;28;20063;-43
2021/05/18 13:59:51;;;;;;;2.88;1.92;;;;;;;21.49;45.99;101017.81;5006516;28;20048;-44
2021/05/18 14:02:17;;;;;;;2.00;1.90;;;;;;;21.50;46.05;101009.34;5023583;28;20495;-54
2021/05/18 14:04:42;;;;;;;2.70;1.83;;;;;;;21.61;46.30;101021.19;5007503;28;20042;-47
2021/05/18 14:09:50;;;;;;;1.80;1.70;;;;;;;21.73;45.72;101020.31;5025332;28;20049;-56
2021/05/18 14:12:15;;;;;;;3.20;1.67;;;;;;;21.74;46.13;101025.41;5026200;28;20051;-52
2021/05/18 14:14:40;;;;;;;2.33;1.55;;;;;;;21.74;45.57;101017.28;5026093;28;20047;-44
2021/05/18 14:17:06;;;;;;;1.73;1.63;;;;;;;21.70;45.91;101019.09;4991795;28;20041;-56
2021/05/18 14:19:31;;;;;;;2.42;1.85;;;;;;;21.78;45.44;101018.13;5024964;28;20030;-57
2021/05/18 14:21:57;;;;;;;2.20;1.80;;;;;;;21.82;45.15;101024.41;5015640;28;20041;-55
2021/05/18 14:24:34;;;;;;;2.08;1.90;;;;;;;21.82;45.86;101023.63;5025858;28;20456;-55
2021/05/18 14:26:59;;;;;;;1.83;1.73;;;;;;;21.74;45.52;101022.69;5010507;28;20041;-55
2021/05/18 14:29:25;;;;;;;1.83;1.73;;;;;;;21.72;46.02;101024.94;5026271;28;20510;-45
2021/05/18 14:31:53;;;;;;;1.95;1.55;;;;;;;21.71;45.78;101030.72;5020558;28;20044;-49
2021/05/18 14:34:19;;;;;;;1.90;1.80;;;;;;;21.75;44.71;101026.16;5022657;28;20124;-52
2021/05/18 14:36:44;;;;;;;1.70;1.60;;;;;;;21.68;45.19;101032.22;5025296;28;20407;-51
2021/05/18 14:39:11;;;;;;;6.45;2.00;;;;;;;21.69;44.76;101031.06;5007098;28;20549;-55
2021/05/18 14:44:23;;;;;;;2.00;1.58;;;;;;;21.69;45.35;101039.16;5025161;28;22782;-56
2021/05/18 14:55:01;;;;;;;6.07;1.90;;;;;;;21.76;43.31;101039.34;5024018;28;20036;-56
2021/05/18 14:57:27;;;;;;;3.00;1.52;;;;;;;21.87;43.42;101036.91;4995088;28;20099;-50
2021/05/18 14:59:52;;;;;;;1.48;1.30;;;;;;;22.04;42.70;101033.03;5004789;28;20037;-55
2021/05/18 15:02:18;;;;;;;2.45;1.50;;;;;;;22.03;41.72;101042.28;5007995;28;20534;-48
2021/05/18 15:04:43;;;;;;;1.52;1.17;;;;;;;21.92;42.57;101035.84;5022865;28;20033;-46
2021/05/18 15:07:08;;;;;;;2.13;1.65;;;;;;;21.86;42.50;101046.13;5005129;28;20049;-51
2021/05/18 15:09:38;;;;;;;1.50;1.40;;;;;;;22.03;41.77;101053.09;5023951;28;20750;-57
2021/05/18 15:12:04;;;;;;;2.33;1.23;;;;;;;22.08;41.74;101039.28;5023703;28;20039;-59
2021/05/18 15:14:30;;;;;;;3.10;1.30;;;;;;;22.19;41.96;101043.00;5005184;28;20051;-58
2021/05/18 15:16:55;;;;;;;1.65;1.55;;;;;;;22.37;41.81;101063.16;5015727;28;20037;-47
2021/05/18 15:19:23;;;;;;;1.42;1.40;;;;;;;22.46;41.45;101066.41;5023060;28;20476;-46
2021/05/18 15:21:48;;;;;;;1.13;1.05;;;;;;;22.55;40.76;101053.44;5021787;28;20044;-52
2021/05/18 15:24:13;;;;;;;1.30;1.20;;;;;;;22.41;40.83;101058.56;5022698;28;20447;-51
2021/05/18 15:26:39;;;;;;;1.77;1.15;;;;;;;22.34;41.66;101061.16;5023443;28;20084;-51
2021/05/18 15:29:04;;;;;;;2.60;1.48;;;;;;;22.24;41.97;101059.75;5005545;28;20045;-50
2021/05/18 15:31:30;;;;;;;2.13;1.08;;;;;;;22.40;42.22;101071.31;5023289;28;20041;-53
2021/05/18 15:33:55;;;;;;;1.55;1.08;;;;;;;22.44;41.63;101068.69;5022316;28;20029;-55
2021/05/18 15:36:21;;;;;;;8.10;1.40;;;;;;;22.51;41.72;101066.16;5003493;28;20050;-55
2021/05/18 15:38:47;;;;;;;3.00;1.30;;;;;;;22.41;41.17;101064.78;4999393;28;20566;-56
2021/05/18 15:41:14;;;;;;;3.30;1.65;;;;;;;22.28;41.88;101076.09;4998855;28;20574;-55
2021/05/18 15:43:39;;;;;;;1.98;1.13;;;;;;;22.30;42.15;101071.88;5004134;28;20037;-53
2021/05/18 15:46:04;;;;;;;0.80;0.80;;;;;;;22.34;41.52;101080.09;4989034;28;20037;-55
2021/05/18 15:48:30;;;;;;;1.25;1.02;;;;;;;22.35;41.15;101087.84;5001217;28;20096;-55
2021/05/18 15:50:56;;;;;;;1.80;1.70;;;;;;;22.38;41.83;101081.72;4986430;28;20041;-55
2021/05/18 15:53:21;;;;;;;3.72;3.13;;;;;;;22.42;41.64;101098.84;5004492;28;20071;-52